Time;durP1;ratioP1;P1;durP2;ratioP2;P2;SDS_P1;SDS_P2;PMS_P1;PMS_P2;Temp;Humidity;BMP_temperature;BMP_pressure;BME280_temperature;BME280_humidity;BME280_pressure;Samples;Min_cycle;Max_cycle;Signal;HPM_P1;HPM_P2
2022/09/17 00:02:05;;;;;;;;;;;;;;;7.61;100.00;101089.63;10383914;28;19980;-82
2022/09/17 00:07:06;;;;;;;;;;;;;;;7.57;100.00;101087.63;10384828;28;20055;-82
2022/09/17 00:12:06;;;;;;;;;;;;;;;7.58;100.00;101084.22;10395801;28;20440;-83
2022/09/17 00:17:07;;;;;;;;;;;;;;;7.62;100.00;101087.09;10384320;28;19921;-83
2022/09/17 00:22:07;;;;;;;;;;;;;;;7.51;100.00;101092.47;10401733;28;20390;-82
2022/09/17 00:27:07;;;;;;;;;;;;;;;7.47;100.00;101097.47;10400842;28;19921;-78
2022/09/17 00:32:08;;;;;;;;;;;;;;;7.39;100.00;101101.28;10392236;28;19929;-83
2022/09/17 00:37:08;;;;;;;;;;;;;;;7.30;100.00;101104.19;10383113;28;19943;-82
2022/09/17 00:42:10;;;;;;;;;;;;;;;7.34;100.00;101115.72;10401811;28;19925;-82
2022/09/17 00:47:31;;;;;;;;;;;;;;;7.38;100.00;101114.19;10400061;28;19924;-82
2022/09/17 00:52:42;;;;;;;;;;;;;;;7.52;100.00;101113.38;10421010;28;19921;-83
2022/09/17 00:57:44;;;;;;;;;;;;;;;7.52;100.00;101115.09;10378777;28;19917;-82
2022/09/17 01:02:45;;;;;;;;;;;;;;;7.62;100.00;101117.50;10396458;28;20007;-82
2022/09/17 01:08:04;;;;;;;;;;;;;;;7.68;100.00;101112.66;10378071;28;19935;-82
2022/09/17 01:13:19;;;;;;;;;;;;;;;7.71;100.00;101111.94;10353912;28;19921;-81
2022/09/17 01:18:21;;;;;;;;;;;;;;;7.73;100.00;101110.34;10375599;28;19947;-82
2022/09/17 01:23:40;;;;;;;;;;;;;;;7.67;100.00;101110.88;10355396;28;19921;-83
2022/09/17 01:29:15;;;;;;;;;;;;;;;7.70;100.00;101120.56;10413889;28;19932;-82
2022/09/17 01:34:19;;;;;;;;;;;;;;;7.75;100.00;101125.28;10279161;28;19928;-82
2022/09/17 01:39:19;;;;;;;;;;;;;;;7.83;100.00;101135.28;10371582;28;19928;-82
2022/09/17 01:44:40;;;;;;;;;;;;;;;7.83;100.00;101132.69;10348060;28;20685;-82
2022/09/17 01:49:40;;;;;;;;;;;;;;;7.85;100.00;101142.38;10372448;28;19932;-83
2022/09/17 01:54:42;;;;;;;;;;;;;;;7.76;100.00;101136.59;10332887;28;19929;-82
2022/09/17 01:59:48;;;;;;;;;;;;;;;7.71;100.00;101151.03;10353602;28;19928;-82
2022/09/17 02:04:54;;;;;;;;;;;;;;;7.70;100.00;101151.81;10342498;28;20015;-82
2022/09/17 02:09:58;;;;;;;;;;;;;;;7.83;100.00;101159.63;10359804;28;20008;-81
2022/09/17 02:14:59;;;;;;;;;;;;;;;8.03;100.00;101160.88;10350504;28;20286;-82
2022/09/17 02:20:00;;;;;;;;;;;;;;;8.19;100.00;101154.03;10372147;28;20267;-82
2022/09/17 02:25:00;;;;;;;;;;;;;;;8.26;100.00;101152.69;10355981;28;19925;-82
2022/09/17 02:30:01;;;;;;;;;;;;;;;8.32;100.00;101158.28;10356420;28;20015;-81
2022/09/17 02:35:01;;;;;;;;;;;;;;;8.35;100.00;101155.84;10371719;28;19922;-81
2022/09/17 02:40:02;;;;;;;;;;;;;;;8.23;100.00;101151.69;10361683;28;19931;-82
2022/09/17 02:45:08;;;;;;;;;;;;;;;8.10;100.00;101164.75;10377555;28;19921;-81
2022/09/17 02:50:15;;;;;;;;;;;;;;;8.01;100.00;101165.09;10364075;28;20542;-82
2022/09/17 02:55:17;;;;;;;;;;;;;;;7.84;100.00;101166.63;10375849;28;20000;-82
2022/09/17 03:00:18;;;;;;;;;;;;;;;7.82;100.00;101168.25;10362540;28;19926;-82
2022/09/17 03:05:19;;;;;;;;;;;;;;;7.93;100.00;101169.81;10359371;28;19984;-81
2022/09/17 03:10:20;;;;;;;;;;;;;;;8.09;100.00;101168.19;10414005;28;20446;-81
2022/09/17 03:15:23;;;;;;;;;;;;;;;8.13;100.00;101174.50;10382102;28;19921;-82
2022/09/17 03:20:23;;;;;;;;;;;;;;;8.13;100.00;101167.56;10386257;28;20380;-81
2022/09/17 03:25:24;;;;;;;;;;;;;;;8.07;100.00;101170.72;10412286;28;20353;-81
2022/09/17 03:30:24;;;;;;;;;;;;;;;8.03;100.00;101168.72;10401622;28;20399;-80
2022/09/17 03:35:24;;;;;;;;;;;;;;;8.02;100.00;101160.78;10416680;28;19929;-80
2022/09/17 03:40:25;;;;;;;;;;;;;;;7.92;100.00;101174.94;10400649;28;19921;-81
2022/09/17 03:45:25;;;;;;;;;;;;;;;8.08;100.00;101168.97;10407141;28;19928;-81
2022/09/17 03:50:28;;;;;;;;;;;;;;;8.20;100.00;101168.88;10378202;28;19932;-82
2022/09/17 03:55:29;;;;;;;;;;;;;;;8.25;100.00;101174.34;10403472;28;19928;-82
2022/09/17 04:00:29;;;;;;;;;;;;;;;8.28;100.00;101170.25;10397117;28;19948;-81
2022/09/17 04:05:29;;;;;;;;;;;;;;;8.31;100.00;101178.25;10378881;28;19921;-81
2022/09/17 04:10:30;;;;;;;;;;;;;;;8.18;100.00;101181.78;10401018;28;19925;-81
2022/09/17 04:15:30;;;;;;;;;;;;;;;7.98;100.00;101183.16;10396056;28;20019;-81
2022/09/17 04:20:30;;;;;;;;;;;;;;;7.83;100.00;101193.50;10400674;28;19929;-81
2022/09/17 04:25:31;;;;;;;;;;;;;;;7.76;100.00;101184.41;10390896;28;19932;-81
2022/09/17 04:30:31;;;;;;;;;;;;;;;7.83;100.00;101188.28;10365912;28;19920;-80
2022/09/17 04:35:32;;;;;;;;;;;;;;;7.93;100.00;101184.56;10389618;28;19921;-78
2022/09/17 04:40:32;;;;;;;;;;;;;;;7.90;100.00;101193.09;10382198;28;19929;-80
2022/09/17 04:45:32;;;;;;;;;;;;;;;7.90;100.00;101192.19;10400257;28;20377;-81
2022/09/17 04:50:33;;;;;;;;;;;;;;;7.94;100.00;101199.41;10385873;28;19925;-80
2022/09/17 04:55:33;;;;;;;;;;;;;;;8.03;100.00;101212.09;10371548;28;19927;-80
2022/09/17 05:00:34;;;;;;;;;;;;;;;8.13;100.00;101211.88;10390081;28;19924;-87
2022/09/17 05:05:34;;;;;;;;;;;;;;;8.16;100.00;101214.69;10376819;28;20052;-84
2022/09/17 05:10:35;;;;;;;;;;;;;;;8.17;100.00;101210.38;10397717;28;19990;-84
2022/09/17 05:15:35;;;;;;;;;;;;;;;8.04;100.00;101207.00;10415675;28;19921;-83
2022/09/17 05:20:36;;;;;;;;;;;;;;;7.93;100.00;101219.34;10405944;28;19929;-82
2022/09/17 05:25:36;;;;;;;;;;;;;;;7.97;100.00;101216.94;10399454;28;19925;-77
2022/09/17 05:30:36;;;;;;;;;;;;;;;8.00;100.00;101215.44;10382984;28;19950;-78
2022/09/17 05:35:37;;;;;;;;;;;;;;;8.08;100.00;101224.66;10370487;28;19983;-79
2022/09/17 05:40:37;;;;;;;;;;;;;;;8.11;100.00;101234.34;10376218;28;19921;-80
2022/09/17 05:45:38;;;;;;;;;;;;;;;8.09;100.00;101238.56;10398575;28;19928;-80
2022/09/17 05:50:38;;;;;;;;;;;;;;;8.15;100.00;101225.03;10400017;28;19924;-83
2022/09/17 05:55:38;;;;;;;;;;;;;;;8.09;100.00;101230.75;10397898;28;19936;-84
2022/09/17 06:00:39;;;;;;;;;;;;;;;8.07;100.00;101229.75;10399851;28;20268;-85
2022/09/17 06:05:40;;;;;;;;;;;;;;;8.06;100.00;101240.97;10401863;28;19928;-85
2022/09/17 06:10:40;;;;;;;;;;;;;;;8.36;100.00;101251.53;10401410;28;20399;-86
2022/09/17 06:15:41;;;;;;;;;;;;;;;9.51;100.00;101248.91;10406897;28;19921;-80
2022/09/17 06:20:41;;;;;;;;;;;;;;;11.08;93.66;101257.44;10408083;28;19916;-81
2022/09/17 06:25:42;;;;;;;;;;;;;;;12.48;84.67;101241.53;10414285;28;19921;-81
2022/09/17 06:30:42;;;;;;;;;;;;;;;13.14;78.78;101253.16;10409014;28;19932;-81
2022/09/17 06:35:42;;;;;;;;;;;;;;;14.25;74.09;101253.28;10387128;28;20364;-80
2022/09/17 06:40:43;;;;;;;;;;;;;;;14.50;72.89;101256.84;10395096;28;19932;-82
2022/09/17 06:45:43;;;;;;;;;;;;;;;14.24;72.99;101256.75;10380136;28;19921;-82
2022/09/17 06:50:43;;;;;;;;;;;;;;;13.81;74.19;101261.22;10393582;28;20355;-81
2022/09/17 06:55:44;;;;;;;;;;;;;;;13.93;74.04;101266.06;10391122;28;19917;-80
2022/09/17 07:00:44;;;;;;;;;;;;;;;13.45;75.52;101272.00;10402658;28;19925;-80
2022/09/17 07:05:45;;;;;;;;;;;;;;;12.48;79.05;101274.72;10404982;28;19921;-81
2022/09/17 07:10:45;;;;;;;;;;;;;;;11.41;84.59;101269.59;10402139;28;19932;-81
2022/09/17 07:15:53;;;;;;;;;;;;;;;11.10;87.11;101270.63;10386675;28;19949;-81
2022/09/17 07:20:54;;;;;;;;;;;;;;;11.14;88.29;101278.72;10401149;28;20015;-81
2022/09/17 07:25:55;;;;;;;;;;;;;;;11.07;88.36;101267.84;10384081;28;20381;-79
2022/09/17 07:30:55;;;;;;;;;;;;;;;11.32;86.91;101262.13;10383859;28;19967;-80
2022/09/17 07:35:56;;;;;;;;;;;;;;;12.12;84.98;101262.59;10412842;28;19920;-80
2022/09/17 07:40:57;;;;;;;;;;;;;;;12.91;80.68;101266.19;10382475;28;19950;-81
2022/09/17 07:45:57;;;;;;;;;;;;;;;12.46;81.64;101269.44;10409631;28;20015;-81
2022/09/17 07:50:57;;;;;;;;;;;;;;;12.19;81.98;101271.63;10385382;28;19921;-79
2022/09/17 07:55:58;;;;;;;;;;;;;;;13.21;79.30;101262.22;10402155;28;20012;-79
2022/09/17 08:00:59;;;;;;;;;;;;;;;14.08;72.73;101268.44;10391206;28;19925;-79
2022/09/17 08:06:02;;;;;;;;;;;;;;;15.88;66.57;101267.00;10385437;28;19921;-79
2022/09/17 08:11:03;;;;;;;;;;;;;;;17.20;61.07;101264.69;10368267;28;19943;-79
2022/09/17 08:16:05;;;;;;;;;;;;;;;16.79;61.08;101273.22;10381677;28;20296;-80
2022/09/17 08:21:05;;;;;;;;;;;;;;;15.29;66.31;101269.38;10382555;28;19921;-80
2022/09/17 08:26:07;;;;;;;;;;;;;;;14.93;66.88;101270.78;10409077;28;19925;-79
2022/09/17 08:31:07;;;;;;;;;;;;;;;14.72;66.23;101271.78;10383689;28;20409;-80
2022/09/17 08:36:09;;;;;;;;;;;;;;;15.45;67.11;101273.44;10381458;28;19988;-80
2022/09/17 08:41:09;;;;;;;;;;;;;;;15.85;62.84;101280.94;10397126;28;19924;-79
2022/09/17 08:46:10;;;;;;;;;;;;;;;14.94;64.50;101283.09;10408487;28;19917;-79
2022/09/17 08:51:23;;;;;;;;;;;;;;;15.19;65.22;101283.97;10366640;28;19931;-81
2022/09/17 08:56:24;;;;;;;;;;;;;;;15.64;66.72;101281.13;10381810;28;20408;-80
2022/09/17 09:01:24;;;;;;;;;;;;;;;16.86;62.41;101276.09;10380991;28;19924;-80
2022/09/17 09:06:45;;;;;;;;;;;;;;;17.17;60.02;101276.97;10398897;28;20397;-80
2022/09/17 09:11:46;;;;;;;;;;;;;;;15.69;62.77;101289.19;10398497;28;20317;-79
2022/09/17 09:16:47;;;;;;;;;;;;;;;14.49;65.95;101292.84;10393269;28;19925;-80
2022/09/17 09:21:59;;;;;;;;;;;;;;;13.34;71.56;101295.16;10403174;28;19917;-80
2022/09/17 09:27:18;;;;;;;;;;;;;;;12.19;75.05;101305.75;10392803;28;20499;-80
2022/09/17 09:32:37;;;;;;;;;;;;;;;16.63;63.39;101291.28;10380773;28;19921;-81
2022/09/17 09:37:38;;;;;;;;;;;;;;;19.47;52.63;101281.19;10358638;28;20369;-80
2022/09/17 09:42:38;;;;;;;;;;;;;;;19.65;49.10;101283.28;10357542;28;19928;-79
2022/09/17 09:47:48;;;;;;;;;;;;;;;20.30;47.86;101271.00;10374214;28;19924;-81
2022/09/17 09:53:07;;;;;;;;;;;;;;;19.34;49.58;101261.50;10367628;28;20436;-80
2022/09/17 09:58:17;;;;;;;;;;;;;;;17.79;52.29;101272.34;10393394;28;19925;-80
2022/09/17 10:03:18;;;;;;;;;;;;;;;18.32;55.13;101263.91;10349858;28;19913;-79
2022/09/17 10:08:19;;;;;;;;;;;;;;;15.68;62.17;101284.75;10316094;28;19922;-80
2022/09/17 10:13:19;;;;;;;;;;;;;;;13.39;73.62;101291.00;10305195;28;19926;-89
2022/09/17 10:18:21;;;;;;;;;;;;;;;13.33;81.14;101283.78;10314478;28;20020;-80
2022/09/17 10:23:22;;;;;;;;;;;;;;;15.73;73.73;101269.09;10306461;28;19924;-81
2022/09/17 10:28:22;;;;;;;;;;;;;;;18.13;65.37;101270.53;10305996;28;19926;-81
2022/09/17 10:33:29;;;;;;;;;;;;;;;18.76;57.47;101262.16;10308767;28;20465;-78
2022/09/17 10:38:31;;;;;;;;;;;;;;;20.14;51.16;101253.06;10305130;28;20012;-80
2022/09/17 10:43:31;;;;;;;;;;;;;;;21.92;48.53;101251.44;10309076;28;19917;-80
2022/09/17 10:48:32;;;;;;;;;;;;;;;21.79;45.16;101261.09;10287661;28;19972;-79
2022/09/17 10:53:32;;;;;;;;;;;;;;;17.51;54.20;101260.19;10311905;28;20401;-79
2022/09/17 10:58:33;;;;;;;;;;;;;;;16.66;58.54;101271.97;10299046;28;20020;-78
2022/09/17 11:04:12;;;;;;;;;;;;;;;15.47;61.59;101264.72;10306514;28;20345;-78
2022/09/17 11:09:12;;;;;;;;;;;;;;;17.14;57.78;101262.75;10180077;29;19930;-78
2022/09/17 11:14:18;;;;;;;;;;;;;;;19.81;50.99;101248.13;10291918;28;19961;-78
2022/09/17 11:19:26;;;;;;;;;;;;;;;21.56;49.69;101240.47;10349293;28;20445;-78
2022/09/17 11:24:45;;;;;;;;;;;;;;;20.43;49.89;101237.50;10326270;28;19925;-78
2022/09/17 11:30:06;;;;;;;;;;;;;;;18.00;57.14;101248.19;10342397;28;20419;-79
2022/09/17 11:35:07;;;;;;;;;;;;;;;18.56;52.69;101233.50;10329252;28;19964;-78
2022/09/17 11:40:11;;;;;;;;;;;;;;;21.32;44.97;101231.41;10347820;28;19917;-78
2022/09/17 11:45:17;;;;;;;;;;;;;;;19.67;49.29;101236.41;10297695;28;19930;-78
2022/09/17 11:50:47;;;;;;;;;;;;;;;17.28;55.64;101241.97;10300188;28;19922;-79
2022/09/17 11:55:56;;;;;;;;;;;;;;;17.15;56.43;101238.09;10287955;28;19922;-85
2022/09/17 12:01:01;;;;;;;;;;;;;;;17.40;55.43;101244.94;10299544;28;19924;-84
2022/09/17 12:06:06;;;;;;;;;;;;;;;18.82;53.34;101232.22;10319637;28;19928;-79
2022/09/17 12:11:16;;;;;;;;;;;;;;;19.40;47.46;101231.53;10345305;28;19921;-78
2022/09/17 12:16:22;;;;;;;;;;;;;;;20.08;50.16;101228.19;10369138;28;20327;-78
2022/09/17 12:21:30;;;;;;;;;;;;;;;22.18;44.84;101227.59;10346801;28;20297;-79
2022/09/17 12:26:40;;;;;;;;;;;;;;;23.50;42.89;101225.31;10360122;28;19921;-77
2022/09/17 12:31:46;;;;;;;;;;;;;;;22.33;42.21;101207.22;10437686;28;20281;-81
2022/09/17 12:37:07;;;;;;;;;;;;;;;18.96;51.83;101225.41;10366286;28;20014;-80
2022/09/17 12:42:07;;;;;;;;;;;;;;;20.28;47.93;101216.94;10378012;28;20366;-79
2022/09/17 12:47:30;;;;;;;;;;;;;;;20.66;44.57;101199.66;10374424;28;19929;-80
2022/09/17 12:52:34;;;;;;;;;;;;;;;21.31;46.97;101200.34;10378774;28;20070;-79
2022/09/17 12:57:39;;;;;;;;;;;;;;;21.57;45.40;101207.63;10399689;28;19928;-79
2022/09/17 13:02:52;;;;;;;;;;;;;;;18.79;50.46;101203.91;10400069;28;20388;-80
2022/09/17 13:08:11;;;;;;;;;;;;;;;20.01;50.85;101194.44;10400363;28;19921;-80
2022/09/17 13:13:23;;;;;;;;;;;;;;;17.32;55.51;101206.81;10399097;28;19921;-83
2022/09/17 13:18:34;;;;;;;;;;;;;;;17.81;54.35;101193.84;10400119;28;19928;-80
2022/09/17 13:23:35;;;;;;;;;;;;;;;20.01;48.66;101180.25;10382893;28;20262;-80
2022/09/17 13:28:36;;;;;;;;;;;;;;;20.00;47.75;101183.78;10399238;28;19925;-83
2022/09/17 13:33:50;;;;;;;;;;;;;;;20.59;46.67;101177.44;10380691;28;19924;-80
2022/09/17 13:38:50;;;;;;;;;;;;;;;20.67;44.79;101178.44;10381574;28;19913;-78
2022/09/17 13:43:53;;;;;;;;;;;;;;;20.95;43.46;101178.75;10381143;28;19925;-79
2022/09/17 13:48:55;;;;;;;;;;;;;;;19.17;48.13;101185.16;10379952;28;19960;-79
2022/09/17 13:53:55;;;;;;;;;;;;;;;19.58;48.63;101194.66;10409830;28;19973;-85
2022/09/17 13:59:03;;;;;;;;;;;;;;;19.71;49.97;101200.16;10380246;28;20016;-83
2022/09/17 14:04:03;;;;;;;;;;;;;;;18.32;52.60;101197.66;10381116;28;20327;-82
2022/09/17 14:09:24;;;;;;;;;;;;;;;17.41;57.84;101188.53;10397238;28;19987;-79
2022/09/17 14:14:27;;;;;;;;;;;;;;;19.22;50.85;101175.53;10398810;28;19978;-84
2022/09/17 14:19:35;;;;;;;;;;;;;;;20.27;51.42;101177.97;10397294;28;19917;-82
2022/09/17 14:24:43;;;;;;;;;;;;;;;20.91;45.78;101176.94;10377256;28;20179;-82
2022/09/17 14:30:05;;;;;;;;;;;;;;;21.12;45.65;101172.69;10397617;28;19927;-81
2022/09/17 14:35:13;;;;;;;;;;;;;;;20.95;38.16;101173.41;10368772;28;20392;-81
2022/09/17 14:40:14;;;;;;;;;;;;;;;20.59;38.87;101173.88;10396103;28;20357;-80
2022/09/17 14:45:40;;;;;;;;;;;;;;;21.27;37.61;101178.13;10387208;28;20016;-83
2022/09/17 14:50:41;;;;;;;;;;;;;;;21.73;37.44;101184.72;10401745;28;19971;-78
2022/09/17 14:55:41;;;;;;;;;;;;;;;20.50;39.90;101186.19;10403933;28;19924;-78
2022/09/17 15:00:41;;;;;;;;;;;;;;;19.12;42.90;101188.59;10405018;28;20288;-79
2022/09/17 15:05:45;;;;;;;;;;;;;;;18.52;45.34;101196.28;10370531;28;20355;-80
2022/09/17 15:10:47;;;;;;;;;;;;;;;20.08;42.35;101185.69;10409574;28;19921;-78
2022/09/17 15:15:53;;;;;;;;;;;;;;;18.68;42.73;101193.06;10403392;28;19940;-81
2022/09/17 15:20:53;;;;;;;;;;;;;;;19.05;43.62;101193.78;10395016;28;19921;-81
2022/09/17 15:25:54;;;;;;;;;;;;;;;16.60;47.70;101193.41;10380584;28;19921;-80
2022/09/17 15:30:54;;;;;;;;;;;;;;;15.12;50.55;101206.41;10400554;28;20007;-78
2022/09/17 15:36:00;;;;;;;;;;;;;;;14.55;53.42;101213.16;10393093;28;19921;-81
2022/09/17 15:41:19;;;;;;;;;;;;;;;14.83;55.33;101207.19;10402319;28;20446;-79
2022/09/17 15:46:27;;;;;;;;;;;;;;;15.19;53.84;101203.13;10383765;28;19921;-78
2022/09/17 15:51:31;;;;;;;;;;;;;;;15.26;55.49;101209.53;10378551;28;19921;-80
2022/09/17 15:56:35;;;;;;;;;;;;;;;15.27;55.39;101208.69;10402765;28;20371;-80
2022/09/17 16:01:36;;;;;;;;;;;;;;;14.94;55.59;101211.94;10400197;28;19960;-80
2022/09/17 16:06:37;;;;;;;;;;;;;;;14.54;56.61;101220.19;10389503;28;19928;-79
2022/09/17 16:11:39;;;;;;;;;;;;;;;14.23;56.20;101236.53;10379282;28;19921;-79
2022/09/17 16:16:39;;;;;;;;;;;;;;;13.98;57.91;101227.69;10359903;28;20340;-78
2022/09/17 16:21:40;;;;;;;;;;;;;;;13.88;58.64;101230.78;10371851;28;19971;-79
2022/09/17 16:26:40;;;;;;;;;;;;;;;13.80;60.31;101231.38;10398775;28;20007;-79
2022/09/17 16:31:41;;;;;;;;;;;;;;;13.80;60.98;101234.00;10382730;28;19916;-78
2022/09/17 16:36:41;;;;;;;;;;;;;;;13.72;61.67;101243.31;10402399;28;19929;-79
2022/09/17 16:41:41;;;;;;;;;;;;;;;13.40;62.74;101244.59;10376657;28;19921;-82
2022/09/17 16:46:41;;;;;;;;;;;;;;;13.20;63.85;101236.75;10359669;28;20296;-81
2022/09/17 16:51:42;;;;;;;;;;;;;;;13.02;64.78;101243.03;10376326;28;19932;-81
2022/09/17 16:56:43;;;;;;;;;;;;;;;12.99;65.55;101241.97;10383428;28;19921;-80
2022/09/17 17:01:43;;;;;;;;;;;;;;;12.80;65.79;101258.66;10360164;28;19921;-80
2022/09/17 17:06:43;;;;;;;;;;;;;;;12.57;66.76;101262.03;10378492;28;20000;-79
2022/09/17 17:11:45;;;;;;;;;;;;;;;12.43;66.70;101271.91;10392466;28;19951;-85
2022/09/17 17:16:46;;;;;;;;;;;;;;;12.15;68.57;101267.97;10393957;28;19955;-79
2022/09/17 17:21:49;;;;;;;;;;;;;;;11.90;69.20;101274.63;10395028;28;19924;-81
2022/09/17 17:26:49;;;;;;;;;;;;;;;11.84;66.26;101282.22;10397334;28;19925;-78
2022/09/17 17:31:50;;;;;;;;;;;;;;;11.82;63.42;101290.81;10399711;28;20388;-77
2022/09/17 17:36:50;;;;;;;;;;;;;;;11.73;61.79;101294.78;10386121;28;19921;-77
2022/09/17 17:41:53;;;;;;;;;;;;;;;11.74;58.36;101301.81;10407973;28;20427;-77
2022/09/17 17:46:53;;;;;;;;;;;;;;;11.56;58.54;101307.06;10407649;28;19921;-80
2022/09/17 17:51:53;;;;;;;;;;;;;;;11.42;58.44;101313.31;10365234;28;19921;-78
2022/09/17 17:56:54;;;;;;;;;;;;;;;11.38;58.95;101314.84;10393858;28;19956;-79
2022/09/17 18:01:54;;;;;;;;;;;;;;;11.54;58.35;101308.69;10380462;28;19986;-78
2022/09/17 18:06:54;;;;;;;;;;;;;;;11.64;59.39;101320.53;10415009;28;20007;-78
2022/09/17 18:11:55;;;;;;;;;;;;;;;11.67;60.16;101319.81;10437622;28;19920;-78
2022/09/17 18:16:55;;;;;;;;;;;;;;;11.55;61.36;101315.75;10436528;28;20296;-78
2022/09/17 18:21:55;;;;;;;;;;;;;;;11.44;61.22;101336.13;10406948;28;20342;-78
2022/09/17 18:26:56;;;;;;;;;;;;;;;11.40;62.78;101347.28;10446183;28;20023;-77
2022/09/17 18:31:56;;;;;;;;;;;;;;;11.34;63.76;101352.22;10446980;28;20003;-77
2022/09/17 18:36:57;;;;;;;;;;;;;;;11.26;65.22;101354.44;10421312;28;20004;-78
2022/09/17 18:41:57;;;;;;;;;;;;;;;11.19;66.44;101354.94;10416051;28;20432;-78
2022/09/17 18:46:57;;;;;;;;;;;;;;;11.14;67.67;101361.66;10405527;28;19929;-78
2022/09/17 18:51:58;;;;;;;;;;;;;;;11.00;68.93;101359.19;10386708;28;19933;-78
2022/09/17 18:56:58;;;;;;;;;;;;;;;10.99;69.06;101354.78;10405992;28;19917;-79
2022/09/17 19:01:58;;;;;;;;;;;;;;;11.01;70.89;101355.75;10444293;28;20003;-79
2022/09/17 19:06:59;;;;;;;;;;;;;;;11.01;72.73;101367.94;10410337;28;19986;-79
2022/09/17 19:11:59;;;;;;;;;;;;;;;11.18;73.79;101367.94;10447040;28;20426;-79
2022/09/17 19:16:59;;;;;;;;;;;;;;;11.21;74.95;101376.88;10444174;28;19920;-80
2022/09/17 19:22:00;;;;;;;;;;;;;;;11.10;75.03;101388.50;10408673;28;20000;-79
2022/09/17 19:27:00;;;;;;;;;;;;;;;10.89;76.01;101389.16;10424611;28;19982;-78
2022/09/17 19:32:01;;;;;;;;;;;;;;;10.62;77.87;101391.13;10407708;28;19928;-78
2022/09/17 19:37:01;;;;;;;;;;;;;;;10.62;79.45;101397.28;10404982;28;19921;-77
2022/09/17 19:42:01;;;;;;;;;;;;;;;10.69;80.28;101394.19;10403808;28;20439;-78
2022/09/17 19:47:02;;;;;;;;;;;;;;;10.57;81.50;101391.75;10386293;28;19921;-79
2022/09/17 19:52:02;;;;;;;;;;;;;;;10.52;82.68;101403.69;10404452;28;20011;-79
2022/09/17 19:57:02;;;;;;;;;;;;;;;10.49;84.31;101397.41;10403901;28;19966;-79
2022/09/17 20:02:03;;;;;;;;;;;;;;;10.42;85.46;101389.19;10403643;28;19921;-79
2022/09/17 20:07:03;;;;;;;;;;;;;;;10.32;86.56;101394.69;10386359;28;20415;-78
2022/09/17 20:12:04;;;;;;;;;;;;;;;10.31;87.21;101394.59;10402971;28;20269;-78
2022/09/17 20:17:04;;;;;;;;;;;;;;;10.18;87.89;101401.72;10402788;28;19921;-79
2022/09/17 20:22:04;;;;;;;;;;;;;;;10.03;87.80;101412.22;10385044;28;20003;-78
2022/09/17 20:27:05;;;;;;;;;;;;;;;9.74;89.97;101415.72;10403255;28;19921;-77
2022/09/17 20:32:05;;;;;;;;;;;;;;;9.59;91.95;101413.97;10401430;28;19968;-77
2022/09/17 20:37:06;;;;;;;;;;;;;;;9.75;92.73;101414.91;10402469;28;19935;-78
2022/09/17 20:42:06;;;;;;;;;;;;;;;9.89;92.50;101411.38;10403867;28;19921;-77
2022/09/17 20:47:06;;;;;;;;;;;;;;;10.00;92.00;101412.03;10383264;28;19921;-78
2022/09/17 20:52:07;;;;;;;;;;;;;;;10.07;92.01;101413.28;10401856;28;20270;-78
2022/09/17 20:57:07;;;;;;;;;;;;;;;10.05;92.18;101410.59;10402334;28;19920;-78
2022/09/17 21:02:09;;;;;;;;;;;;;;;10.08;92.85;101409.84;10401401;28;19931;-78
2022/09/17 21:07:10;;;;;;;;;;;;;;;10.07;94.19;101413.28;10401567;28;20289;-79
2022/09/17 21:12:10;;;;;;;;;;;;;;;10.01;94.55;101408.63;10400142;28;19932;-78
2022/09/17 21:17:12;;;;;;;;;;;;;;;9.84;95.79;101411.13;10402375;28;20394;-79
2022/09/17 21:22:12;;;;;;;;;;;;;;;9.74;97.15;101423.56;10382315;28;20044;-78
2022/09/17 21:27:12;;;;;;;;;;;;;;;9.68;98.05;101419.75;10400391;28;19917;-80
2022/09/17 21:32:13;;;;;;;;;;;;;;;9.80;98.33;101409.16;10400809;28;19937;-79
2022/09/17 21:37:13;;;;;;;;;;;;;;;9.90;97.59;101413.19;10400149;28;19921;-78
2022/09/17 21:42:13;;;;;;;;;;;;;;;9.93;97.74;101410.75;10399120;28;19924;-79
2022/09/17 21:47:13;;;;;;;;;;;;;;;10.01;97.87;101403.38;10398981;28;20380;-79
2022/09/17 21:52:14;;;;;;;;;;;;;;;10.03;98.70;101407.00;10400838;28;19917;-80
2022/09/17 21:57:14;;;;;;;;;;;;;;;10.05;99.32;101396.59;10399797;28;19917;-79
2022/09/17 22:02:15;;;;;;;;;;;;;;;10.05;99.84;101413.22;10399084;28;19996;-79
2022/09/17 22:07:16;;;;;;;;;;;;;;;10.04;100.00;101414.03;10400155;28;19990;-78
2022/09/17 22:12:16;;;;;;;;;;;;;;;10.02;100.00;101418.25;10399334;28;19979;-77
2022/09/17 22:17:17;;;;;;;;;;;;;;;10.02;100.00;101414.72;10400434;28;19924;-77
2022/09/17 22:22:17;;;;;;;;;;;;;;;10.05;100.00;101414.91;10398105;28;19917;-77
2022/09/17 22:27:17;;;;;;;;;;;;;;;10.03;100.00;101413.91;10400171;28;19917;-77
2022/09/17 22:32:17;;;;;;;;;;;;;;;10.03;100.00;101419.16;10398440;28;20347;-77
2022/09/17 22:37:18;;;;;;;;;;;;;;;10.03;100.00;101417.44;10398366;28;19971;-77
2022/09/17 22:42:18;;;;;;;;;;;;;;;10.02;100.00;101406.88;10399415;28;19947;-78
2022/09/17 22:47:19;;;;;;;;;;;;;;;9.98;100.00;101409.31;10398041;28;20312;-78
2022/09/17 22:52:19;;;;;;;;;;;;;;;9.92;100.00;101408.94;10399094;28;19921;-79
2022/09/17 22:57:19;;;;;;;;;;;;;;;9.90;100.00;101415.81;10392976;28;20008;-78
2022/09/17 23:02:20;;;;;;;;;;;;;;;9.86;100.00;101405.09;10376446;28;19996;-77
2022/09/17 23:07:20;;;;;;;;;;;;;;;9.85;100.00;101417.25;10405025;28;19921;-78
2022/09/17 23:12:20;;;;;;;;;;;;;;;9.82;100.00;101420.59;10404019;28;19928;-78
2022/09/17 23:17:21;;;;;;;;;;;;;;;9.78;100.00;101409.84;10402309;28;20028;-78
2022/09/17 23:22:22;;;;;;;;;;;;;;;9.82;100.00;101406.59;10401870;28;20296;-77
2022/09/17 23:27:22;;;;;;;;;;;;;;;9.84;100.00;101399.75;10401348;28;19928;-78
2022/09/17 23:32:22;;;;;;;;;;;;;;;9.86;100.00;101398.13;10401246;28;19967;-78
2022/09/17 23:37:23;;;;;;;;;;;;;;;9.89;100.00;101406.16;10406645;28;19936;-78
2022/09/17 23:42:23;;;;;;;;;;;;;;;9.83;100.00;101393.66;10403493;28;20361;-78
2022/09/17 23:47:23;;;;;;;;;;;;;;;9.81;100.00;101397.88;10404136;28;19919;-78
2022/09/17 23:52:24;;;;;;;;;;;;;;;9.81;100.00;101386.50;10404853;28;19921;-77
2022/09/17 23:57:24;;;;;;;;;;;;;;;9.80;100.00;101390.84;10386352;28;19921;-78
